Time;durP1;ratioP1;P1;durP2;ratioP2;P2;SDS_P1;SDS_P2;PMS_P1;PMS_P2;Temp;Humidity;BMP_temperature;BMP_pressure;BME280_temperature;BME280_humidity;BME280_pressure;Samples;Min_cycle;Max_cycle;Signal;HPM_P1;HPM_P2
2022/04/04 00:02:24;;;;;;;2.22;1.25;;;;;;;16.04;42.21;101938.16;5031199;28;20060;-60
2022/04/04 00:04:50;;;;;;;1.48;1.20;;;;;;;16.02;41.64;101929.38;5048217;28;20065;-61
2022/04/04 00:07:17;;;;;;;1.55;1.10;;;;;;;16.02;41.40;101933.88;5032926;28;20045;-61
2022/04/04 00:09:44;;;;;;;1.67;1.30;;;;;;;15.99;41.92;101926.09;5050464;28;20191;-61
2022/04/04 00:12:11;;;;;;;2.05;1.50;;;;;;;15.96;41.75;101920.97;5045250;28;20156;-61
2022/04/04 00:14:37;;;;;;;1.63;1.23;;;;;;;15.96;42.00;101911.16;5029584;28;20135;-60
2022/04/04 00:17:05;;;;;;;2.50;1.10;;;;;;;15.95;41.54;101917.44;5047822;28;20132;-59
2022/04/04 00:19:31;;;;;;;4.28;1.83;;;;;;;15.95;41.21;101905.91;5029384;28;20129;-61
2022/04/04 00:21:58;;;;;;;2.13;1.30;;;;;;;15.93;41.29;101907.84;5026114;28;20347;-60
2022/04/04 00:24:24;;;;;;;2.25;1.50;;;;;;;15.91;42.33;101896.38;5049431;28;20095;-59
2022/04/04 00:26:51;;;;;;;2.33;1.42;;;;;;;15.90;42.07;101894.69;5026978;28;20137;-60
2022/04/04 00:29:18;;;;;;;2.05;1.38;;;;;;;15.89;41.32;101885.81;5031263;28;20128;-60
2022/04/04 00:31:45;;;;;;;3.78;1.85;;;;;;;15.88;41.36;101877.91;5024175;28;21698;-59
2022/04/04 00:34:12;;;;;;;3.80;2.28;;;;;;;15.88;41.63;101876.09;5029881;28;20092;-60
2022/04/04 00:36:40;;;;;;;1.90;1.50;;;;;;;15.88;42.13;101884.13;5045951;28;20053;-60
2022/04/04 00:39:07;;;;;;;4.65;1.77;;;;;;;15.86;41.15;101870.00;5045327;28;20091;-60
2022/04/04 00:41:33;;;;;;;2.88;1.70;;;;;;;15.84;41.18;101869.28;5024291;28;20496;-60
2022/04/04 00:44:00;;;;;;;3.25;2.08;;;;;;;15.84;41.34;101866.59;5045916;28;20598;-59
2022/04/04 00:46:26;;;;;;;3.88;1.95;;;;;;;15.84;41.50;101865.72;5044816;28;20069;-60
2022/04/04 00:48:53;;;;;;;2.13;1.73;;;;;;;15.83;41.08;101862.19;5047205;28;20236;-60
2022/04/04 00:51:20;;;;;;;2.58;2.00;;;;;;;15.82;42.24;101857.84;5040854;28;20124;-60
2022/04/04 00:53:46;;;;;;;2.72;2.00;;;;;;;15.81;41.95;101848.13;5029524;28;20417;-61
2022/04/04 00:56:13;;;;;;;2.00;1.60;;;;;;;15.82;41.28;101846.28;5046667;28;20053;-60
2022/04/04 00:58:40;;;;;;;2.38;1.63;;;;;;;15.80;41.24;101846.41;5045744;28;20049;-60
2022/04/04 01:01:07;;;;;;;2.05;1.85;;;;;;;15.81;41.22;101842.78;5043011;28;20080;-61
2022/04/04 01:03:33;;;;;;;3.42;2.00;;;;;;;15.79;42.19;101834.84;5045541;28;20048;-61
2022/04/04 01:06:00;;;;;;;2.58;1.60;;;;;;;15.77;42.18;101831.44;5044962;28;20099;-61
2022/04/04 01:08:28;;;;;;;3.75;2.08;;;;;;;15.76;41.63;101826.22;5029197;28;20045;-59
2022/04/04 01:10:54;;;;;;;2.83;1.70;;;;;;;15.75;41.29;101825.34;5046997;28;20357;-60
2022/04/04 01:13:21;;;;;;;2.40;1.70;;;;;;;15.75;41.73;101819.16;5047412;28;20049;-60
2022/04/04 01:15:48;;;;;;;2.72;1.50;;;;;;;15.74;42.14;101818.31;5046032;28;20128;-59
2022/04/04 01:18:15;;;;;;;2.72;1.60;;;;;;;15.73;42.04;101805.91;5046319;28;20041;-59
2022/04/04 01:20:42;;;;;;;2.95;1.90;;;;;;;15.73;41.39;101802.41;5045356;28;20067;-59
2022/04/04 01:23:12;;;;;;;3.65;1.55;;;;;;;15.71;41.36;101807.84;5046787;28;20128;-60
2022/04/04 01:25:39;;;;;;;2.38;1.70;;;;;;;15.71;42.37;101796.31;5047133;28;20135;-59
2022/04/04 01:28:05;;;;;;;2.47;1.88;;;;;;;15.70;41.81;101782.09;5047582;28;20045;-60
2022/04/04 01:30:32;;;;;;;3.95;1.45;;;;;;;15.70;41.44;101784.75;5046807;28;20037;-60
2022/04/04 01:32:59;;;;;;;2.80;1.80;;;;;;;15.68;41.52;101778.69;5045282;28;20123;-61
2022/04/04 01:35:26;;;;;;;2.53;1.80;;;;;;;15.70;41.71;101762.53;5045417;28;20076;-60
2022/04/04 01:37:53;;;;;;;2.85;1.60;;;;;;;15.70;42.03;101773.22;5047297;28;20051;-60
2022/04/04 01:40:19;;;;;;;1.92;1.77;;;;;;;15.67;42.15;101758.25;5028495;28;20136;-60
2022/04/04 01:42:48;;;;;;;1.95;1.70;;;;;;;15.67;42.05;101757.41;5047784;28;20037;-59
2022/04/04 01:45:15;;;;;;;2.30;1.80;;;;;;;15.67;41.28;101746.72;5044478;28;20052;-59
2022/04/04 01:47:42;;;;;;;2.15;1.40;;;;;;;15.65;41.44;101737.97;5046872;28;20067;-59
2022/04/04 01:50:08;;;;;;;3.40;1.80;;;;;;;15.67;41.63;101738.69;5045997;28;20139;-60
2022/04/04 01:52:35;;;;;;;2.75;2.03;;;;;;;15.67;42.16;101741.38;5046657;28;20064;-59
2022/04/04 01:55:02;;;;;;;2.85;1.90;;;;;;;15.65;41.75;101728.16;5043232;28;21166;-60
2022/04/04 01:57:28;;;;;;;2.50;1.58;;;;;;;15.64;41.99;101715.72;5045621;28;20135;-60
2022/04/04 01:59:55;;;;;;;4.63;2.00;;;;;;;15.64;41.31;101710.38;5047090;28;20136;-60
2022/04/04 02:02:21;;;;;;;4.38;1.90;;;;;;;15.66;42.17;101711.13;5045937;28;20040;-59
2022/04/04 02:04:48;;;;;;;2.58;1.80;;;;;;;15.66;41.45;101704.94;5041698;28;20395;-59
2022/04/04 02:07:14;;;;;;;4.40;1.95;;;;;;;15.64;41.03;101702.38;5010784;28;20151;-60
2022/04/04 02:09:41;;;;;;;2.97;1.65;;;;;;;15.65;42.03;101690.72;5027317;28;20594;-59
2022/04/04 02:12:10;;;;;;;3.78;1.67;;;;;;;15.63;41.25;101681.94;5029917;28;20624;-60
2022/04/04 02:14:36;;;;;;;2.85;1.45;;;;;;;15.66;41.57;101680.88;5028460;28;20045;-59
2022/04/04 02:17:04;;;;;;;2.47;1.55;;;;;;;15.64;42.22;101669.41;5030736;28;20061;-60
2022/04/04 02:19:31;;;;;;;2.33;1.42;;;;;;;15.63;42.01;101665.91;5026457;28;20052;-61
2022/04/04 02:21:58;;;;;;;4.05;1.90;;;;;;;15.63;42.22;101657.88;5026246;28;20415;-60
2022/04/04 02:24:25;;;;;;;4.25;2.30;;;;;;;15.64;41.30;101658.72;5029056;28;20380;-59
2022/04/04 02:26:51;;;;;;;1.98;1.40;;;;;;;15.64;42.08;101656.06;5028063;28;20155;-59
2022/04/04 02:29:18;;;;;;;4.47;1.80;;;;;;;15.63;41.35;101657.88;5024450;28;20072;-60
2022/04/04 02:31:44;;;;;;;2.45;1.75;;;;;;;15.63;42.33;101644.53;5025413;28;20077;-60
2022/04/04 02:34:11;;;;;;;2.58;1.50;;;;;;;15.63;41.70;101644.53;5029151;28;20052;-60
2022/04/04 02:36:38;;;;;;;3.15;1.98;;;;;;;15.62;42.14;101632.13;5026582;28;20068;-58
2022/04/04 02:39:04;;;;;;;4.07;2.65;;;;;;;15.62;41.69;101632.13;5009402;28;20037;-60
2022/04/04 02:41:31;;;;;;;3.97;1.95;;;;;;;15.63;42.22;101622.28;5007674;28;20071;-60
2022/04/04 02:43:57;;;;;;;4.50;1.70;;;;;;;15.63;41.57;101615.13;5027294;28;20281;-60
2022/04/04 02:46:24;;;;;;;5.15;2.28;;;;;;;15.62;41.63;101616.09;5025358;28;20333;-60
2022/04/04 02:48:50;;;;;;;3.67;1.90;;;;;;;15.62;42.39;101607.25;5025744;28;20081;-60
2022/04/04 02:51:17;;;;;;;3.13;1.73;;;;;;;15.62;41.35;101593.88;5009761;28;20144;-59
2022/04/04 02:53:44;;;;;;;3.33;1.98;;;;;;;15.62;41.40;101588.53;5030991;28;20144;-60
2022/04/04 02:59:00;;;;;;;2.63;1.85;;;;;;;15.70;41.57;101576.31;5025676;28;20056;-61
2022/04/04 03:01:27;;;;;;;3.55;1.88;;;;;;;15.78;41.26;101581.03;5025928;28;20444;-61
2022/04/04 03:03:54;;;;;;;2.42;1.67;;;;;;;15.87;41.17;101556.25;5024463;28;20038;-61
2022/04/04 03:06:20;;;;;;;4.57;1.95;;;;;;;15.94;41.63;101554.78;5042407;28;20099;-60
2022/04/04 03:08:47;;;;;;;3.67;1.85;;;;;;;16.03;41.34;101550.53;5029847;28;20083;-61
2022/04/04 03:11:15;;;;;;;3.45;1.50;;;;;;;16.12;41.56;101544.47;5047922;28;20313;-60
2022/04/04 03:13:42;;;;;;;2.97;1.48;;;;;;;16.20;40.92;101546.50;5030082;28;20076;-60
2022/04/04 03:16:09;;;;;;;4.90;1.90;;;;;;;16.27;42.02;101539.66;5052802;28;20072;-60
2022/04/04 03:18:36;;;;;;;3.00;1.73;;;;;;;16.35;41.37;101523.00;5033438;28;20084;-59
2022/04/04 03:21:04;;;;;;;3.85;1.60;;;;;;;16.44;42.00;101527.59;5035583;28;20081;-61
2022/04/04 03:23:32;;;;;;;3.67;2.08;;;;;;;16.50;41.85;101521.75;5037843;28;20037;-60
2022/04/04 03:25:59;;;;;;;4.22;1.67;;;;;;;16.59;42.16;101509.41;5050128;28;20116;-60
2022/04/04 03:28:26;;;;;;;4.38;1.80;;;;;;;16.65;41.75;101500.91;5048850;28;20637;-60
2022/04/04 03:30:53;;;;;;;2.65;1.63;;;;;;;16.69;41.58;101495.16;5033713;28;20135;-60
2022/04/04 03:33:20;;;;;;;1.73;1.20;;;;;;;16.74;41.42;101487.59;5050364;28;20087;-60
2022/04/04 03:35:48;;;;;;;6.90;1.60;;;;;;;16.81;41.59;101487.94;5052151;28;20052;-60
2022/04/04 03:38:17;;;;;;;3.45;1.40;;;;;;;16.87;41.81;101478.53;5031417;28;20056;-60
2022/04/04 03:40:44;;;;;;;3.00;1.27;;;;;;;16.92;40.98;101468.28;5034424;28;20071;-59
2022/04/04 03:43:11;;;;;;;4.18;1.60;;;;;;;16.96;41.51;101470.53;5050925;28;20112;-60
2022/04/04 03:45:38;;;;;;;3.22;1.52;;;;;;;16.99;41.35;101464.94;5049340;28;20143;-59
2022/04/04 03:48:05;;;;;;;2.97;1.80;;;;;;;17.02;41.32;101453.13;5052006;28;20122;-59
2022/04/04 03:50:32;;;;;;;2.53;1.80;;;;;;;17.03;41.34;101454.81;5053159;28;20051;-60
2022/04/04 03:52:58;;;;;;;3.97;1.73;;;;;;;17.04;41.07;101456.50;5032569;28;20048;-60
2022/04/04 03:55:31;;;;;;;7.30;1.98;;;;;;;17.03;40.42;101442.25;5049267;28;20055;-60
2022/04/04 03:57:58;;;;;;;2.72;1.38;;;;;;;17.01;40.56;101433.53;5034640;28;20744;-60
2022/04/04 04:00:25;;;;;;;4.05;1.98;;;;;;;17.00;40.07;101439.00;5052946;28;20317;-60
2022/04/04 04:02:53;;;;;;;4.95;1.90;;;;;;;16.97;40.08;101431.25;5048878;28;20428;-60
2022/04/04 04:05:20;;;;;;;3.10;1.98;;;;;;;16.95;40.56;101435.88;5048984;28;20144;-60
2022/04/04 04:07:47;;;;;;;2.88;1.75;;;;;;;16.93;39.56;101433.34;5049123;28;20580;-59
2022/04/04 04:10:14;;;;;;;3.30;1.70;;;;;;;16.91;39.75;101413.88;5032217;28;20055;-60
2022/04/04 04:12:42;;;;;;;5.07;1.77;;;;;;;16.86;39.78;101416.09;5049946;28;20119;-59
2022/04/04 04:15:15;;;;;;;3.95;1.70;;;;;;;16.82;40.40;101421.84;5049611;28;20144;-60
2022/04/04 04:17:41;;;;;;;3.73;2.23;;;;;;;16.75;40.19;101411.66;5048104;28;20128;-59
2022/04/04 04:20:20;;;;;;;8.27;2.10;;;;;;;16.72;40.12;101400.34;5049716;28;20048;-59
2022/04/04 04:22:59;;;;;;;4.63;1.90;;;;;;;16.71;40.28;101399.50;5048071;28;20103;-60
2022/04/04 04:25:29;;;;;;;4.35;2.33;;;;;;;16.68;39.79;101390.88;5048843;28;20172;-60
2022/04/04 04:28:01;;;;;;;2.25;1.45;;;;;;;16.65;40.63;101383.13;5048675;28;20068;-59
2022/04/04 04:30:29;;;;;;;2.35;1.60;;;;;;;16.61;40.38;101376.34;5049902;28;20052;-59
2022/04/04 04:32:55;;;;;;;3.15;1.75;;;;;;;16.56;40.42;101365.16;5051771;28;20405;-60
2022/04/04 04:35:23;;;;;;;5.28;1.58;;;;;;;16.51;40.31;101365.56;5040819;28;20047;-60
2022/04/04 04:37:50;;;;;;;4.03;2.28;;;;;;;16.44;40.64;101357.22;5041111;28;20079;-60
2022/04/04 04:40:18;;;;;;;3.90;2.25;;;;;;;16.41;40.41;101353.97;5043564;28;20127;-59
2022/04/04 04:42:46;;;;;;;4.18;1.63;;;;;;;16.37;40.93;101344.50;5045779;28;20068;-59
2022/04/04 04:45:13;;;;;;;8.38;2.03;;;;;;;16.33;40.32;101332.38;5047366;28;20047;-59
2022/04/04 04:47:40;;;;;;;4.35;1.95;;;;;;;16.29;40.28;101337.97;5032718;28;20124;-60
2022/04/04 04:50:12;;;;;;;3.90;2.20;;;;;;;16.25;40.76;101325.00;5030857;28;20045;-59
2022/04/04 04:52:39;;;;;;;3.65;1.80;;;;;;;16.24;40.30;101323.25;5029090;28;20099;-61
2022/04/04 04:55:09;;;;;;;7.63;2.30;;;;;;;16.22;40.87;101318.06;5050271;28;20059;-60
2022/04/04 04:57:36;;;;;;;5.00;2.03;;;;;;;16.20;40.47;101316.47;5032864;28;20057;-60
2022/04/04 05:00:05;;;;;;;3.30;1.92;;;;;;;16.21;40.91;101312.84;5046705;28;20135;-60
2022/04/04 05:02:34;;;;;;;6.32;2.45;;;;;;;16.21;40.72;101310.19;5050894;28;20372;-61
2022/04/04 05:05:02;;;;;;;5.18;2.65;;;;;;;16.19;40.71;101298.75;5048373;28;20053;-60
2022/04/04 05:07:29;;;;;;;7.10;2.25;;;;;;;16.16;41.09;101294.53;5045825;28;20549;-61
2022/04/04 05:09:55;;;;;;;3.95;2.25;;;;;;;16.15;41.06;101292.81;5033446;28;20136;-60
2022/04/04 05:12:22;;;;;;;3.70;1.77;;;;;;;16.17;41.03;101279.31;5049115;28;20172;-60
2022/04/04 05:14:49;;;;;;;4.70;1.85;;;;;;;16.15;40.35;101275.91;5053637;28;20132;-60
2022/04/04 05:17:15;;;;;;;4.43;2.25;;;;;;;16.12;41.08;101273.50;5047255;28;20109;-60
2022/04/04 05:19:42;;;;;;;5.22;2.50;;;;;;;16.09;40.08;101279.97;5048643;28;20211;-61
2022/04/04 05:22:09;;;;;;;5.55;2.88;;;;;;;16.05;40.29;101257.16;5047688;28;20357;-60
2022/04/04 05:24:36;;;;;;;8.25;2.83;;;;;;;16.02;41.09;101252.91;5050575;28;20045;-59
2022/04/04 05:27:02;;;;;;;7.53;2.38;;;;;;;16.01;40.31;101245.88;5044943;28;20096;-61
2022/04/04 05:29:29;;;;;;;3.45;2.38;;;;;;;15.97;40.90;101235.56;5045561;28;20080;-60
2022/04/04 05:31:56;;;;;;;5.22;2.08;;;;;;;15.96;40.20;101234.72;5047412;28;20135;-60
2022/04/04 05:34:26;;;;;;;5.40;2.10;;;;;;;15.96;40.77;101228.50;5043314;28;20123;-59
2022/04/04 05:36:58;;;;;;;5.05;1.92;;;;;;;15.93;41.22;101221.59;5043141;28;20072;-61
2022/04/04 05:39:24;;;;;;;4.07;2.30;;;;;;;15.93;41.02;101218.94;5048475;28;20127;-60
2022/04/04 05:41:52;;;;;;;5.00;2.30;;;;;;;15.91;40.25;101212.84;5049240;28;20139;-61
2022/04/04 05:44:19;;;;;;;4.15;2.47;;;;;;;15.89;40.54;101205.97;5048625;28;20040;-60
2022/04/04 05:46:46;;;;;;;5.78;1.85;;;;;;;15.89;40.67;101203.28;5046684;28;20272;-61
2022/04/04 05:49:13;;;;;;;4.60;2.53;;;;;;;15.89;40.92;101205.97;5046161;28;20424;-61
2022/04/04 05:51:40;;;;;;;3.58;2.25;;;;;;;15.90;40.57;101207.66;5031249;28;20640;-59
2022/04/04 05:54:25;;;;;;;5.55;2.47;;;;;;;15.90;40.24;101208.50;5045859;28;20416;-60
2022/04/04 05:56:52;;;;;;;4.03;2.42;;;;;;;15.89;40.66;101196.13;5041834;28;20067;-60
2022/04/04 05:59:22;;;;;;;5.97;2.45;;;;;;;15.88;41.15;101196.22;5047309;28;20131;-59
2022/04/04 06:01:49;;;;;;;7.15;3.28;;;;;;;15.86;40.83;101185.69;5049638;28;20057;-60
2022/04/04 06:04:16;;;;;;;3.47;2.30;;;;;;;15.88;40.42;101188.22;5051873;28;20124;-59
2022/04/04 06:06:42;;;;;;;3.95;2.28;;;;;;;15.86;40.95;101180.34;5050346;28;20056;-59
2022/04/04 06:09:09;;;;;;;4.57;2.58;;;;;;;15.85;40.44;101175.13;5047829;28;20381;-60
2022/04/04 06:11:35;;;;;;;4.35;2.38;;;;;;;15.84;41.24;101166.28;5050698;28;20041;-59
2022/04/04 06:14:02;;;;;;;4.82;2.28;;;;;;;15.83;40.61;101169.91;5047125;28;21635;-60
2022/04/04 06:16:29;;;;;;;3.70;2.50;;;;;;;15.84;40.76;101162.72;5049433;28;20099;-60
2022/04/04 06:18:56;;;;;;;5.38;2.42;;;;;;;15.84;40.55;101160.06;5049009;28;20052;-61
2022/04/04 06:21:22;;;;;;;5.45;2.42;;;;;;;15.85;41.50;101164.44;5026683;28;20168;-59
2022/04/04 06:23:49;;;;;;;4.10;2.72;;;;;;;15.84;41.21;101162.72;5044406;28;20164;-60
2022/04/04 06:26:15;;;;;;;6.45;2.42;;;;;;;15.84;41.32;101163.59;5043715;28;20367;-59
2022/04/04 06:28:42;;;;;;;4.57;2.38;;;;;;;15.84;40.64;101157.38;5040727;28;20119;-60
2022/04/04 06:31:10;;;;;;;6.20;2.72;;;;;;;15.84;40.74;101152.91;5024042;28;20384;-59
2022/04/04 06:33:37;;;;;;;4.65;2.63;;;;;;;15.84;41.28;101154.69;5042114;28;20052;-59
2022/04/04 06:36:04;;;;;;;2.42;1.60;;;;;;;15.84;40.95;101158.25;5019665;28;20136;-59
2022/04/04 06:38:31;;;;;;;5.35;2.03;;;;;;;15.83;41.52;101151.19;5039185;28;20052;-59
2022/04/04 06:40:57;;;;;;;2.83;1.90;;;;;;;15.86;40.80;101144.75;5039199;28;20205;-59
2022/04/04 06:43:24;;;;;;;3.47;1.95;;;;;;;15.85;41.77;101148.41;5040785;28;20479;-61
2022/04/04 06:45:50;;;;;;;3.95;1.90;;;;;;;15.86;41.14;101136.72;5041976;28;20131;-60
2022/04/04 06:48:17;;;;;;;2.92;2.08;;;;;;;15.85;41.90;101127.03;5046231;28;20085;-60
2022/04/04 06:50:43;;;;;;;3.17;2.08;;;;;;;15.85;41.71;101114.50;5041042;28;20063;-60
2022/04/04 06:53:10;;;;;;;3.78;2.17;;;;;;;15.84;41.12;101117.28;5040061;28;20488;-60
2022/04/04 06:55:42;;;;;;;3.63;1.90;;;;;;;15.83;41.46;101115.59;5040642;28;20060;-60
2022/04/04 06:58:09;;;;;;;1.88;1.50;;;;;;;15.83;42.11;101124.47;5038648;28;20207;-60
2022/04/04 07:00:36;;;;;;;3.83;2.38;;;;;;;15.82;42.19;101103.22;5039682;28;20049;-60
2022/04/04 07:03:02;;;;;;;6.57;2.45;;;;;;;15.81;42.30;101098.88;5040777;28;20052;-61
2022/04/04 07:05:29;;;;;;;3.15;2.13;;;;;;;15.81;41.84;101101.53;5046175;28;20112;-61
2022/04/04 07:07:56;;;;;;;4.50;2.42;;;;;;;15.78;41.42;101087.44;5050386;28;20167;-60
2022/04/04 07:10:22;;;;;;;4.18;2.35;;;;;;;15.79;42.39;101083.78;5049965;28;20376;-61
2022/04/04 07:12:49;;;;;;;6.70;2.70;;;;;;;15.78;42.51;101083.94;5046893;28;20052;-60
2022/04/04 07:15:16;;;;;;;6.55;2.70;;;;;;;15.77;41.73;101074.22;5048629;28;20039;-60
2022/04/04 07:17:44;;;;;;;3.67;2.53;;;;;;;15.77;42.26;101068.88;5030517;28;20429;-60
2022/04/04 07:20:11;;;;;;;6.85;2.70;;;;;;;15.77;41.85;101079.56;5048301;28;20068;-60
2022/04/04 07:22:40;;;;;;;5.35;2.80;;;;;;;15.76;41.77;101065.38;5049465;28;20049;-61
2022/04/04 07:25:08;;;;;;;7.20;2.83;;;;;;;15.76;42.33;101061.84;5050480;28;20041;-62
2022/04/04 07:27:35;;;;;;;5.35;2.85;;;;;;;15.75;42.39;101060.97;5033310;28;20128;-60
2022/04/04 07:30:03;;;;;;;5.88;2.72;;;;;;;15.75;42.44;101066.31;5048529;28;20099;-60
2022/04/04 07:32:29;;;;;;;7.43;3.65;;;;;;;15.76;42.42;101062.69;5044106;28;20045;-60
2022/04/04 07:34:56;;;;;;;7.35;3.60;;;;;;;15.75;42.33;101052.97;5048523;28;20072;-59
2022/04/04 07:37:22;;;;;;;5.75;3.55;;;;;;;15.74;42.14;101055.78;5044496;28;20065;-60
2022/04/04 07:39:50;;;;;;;5.78;3.35;;;;;;;15.76;42.16;101057.34;5047702;28;20079;-61
2022/04/04 07:42:16;;;;;;;7.28;3.65;;;;;;;15.77;42.12;101043.00;5047849;28;20255;-60
2022/04/04 07:44:43;;;;;;;5.57;3.35;;;;;;;15.81;42.21;101048.09;5048771;28;20041;-60
2022/04/04 07:47:10;;;;;;;8.35;3.75;;;;;;;15.89;41.44;101034.91;5030043;28;20148;-60
2022/04/04 07:49:36;;;;;;;9.38;4.88;;;;;;;15.95;42.37;101037.00;5045317;28;20474;-59
2022/04/04 07:52:03;;;;;;;11.43;6.32;;;;;;;16.03;42.80;101032.66;5048620;28;20372;-62
2022/04/04 07:54:30;;;;;;;17.27;7.65;;;;;;;16.11;43.11;101040.03;5048615;28;20045;-61
2022/04/04 07:56:57;;;;;;;15.60;8.35;;;;;;;16.19;42.68;101029.47;5040007;28;20262;-60
2022/04/04 07:59:24;;;;;;;15.68;7.95;;;;;;;16.27;42.72;101036.81;5045893;28;20061;-60
2022/04/04 08:01:50;;;;;;;12.73;7.45;;;;;;;16.37;43.18;101023.50;5031293;28;20080;-61
2022/04/04 08:04:17;;;;;;;13.80;7.82;;;;;;;16.44;42.78;101025.47;5040133;28;20131;-60
2022/04/04 08:06:44;;;;;;;14.65;7.72;;;;;;;16.51;42.73;101015.03;5047498;28;20059;-61
2022/04/04 08:09:11;;;;;;;14.40;7.40;;;;;;;16.58;43.08;101001.97;5029626;28;20176;-61
2022/04/04 08:11:37;;;;;;;14.25;7.00;;;;;;;16.66;43.00;100991.41;5033044;28;20360;-61
2022/04/04 08:14:08;;;;;;;11.27;6.25;;;;;;;16.71;42.60;101000.69;5052758;28;20041;-60
2022/04/04 08:16:35;;;;;;;14.45;6.63;;;;;;;16.78;43.37;100990.28;5054310;28;20040;-61
2022/04/04 08:19:02;;;;;;;13.30;6.90;;;;;;;16.83;42.49;100990.72;5052702;28;20259;-59
2022/04/04 08:21:30;;;;;;;10.90;5.97;;;;;;;16.88;42.39;100987.59;5052058;28;21454;-60
2022/04/04 08:23:57;;;;;;;13.38;6.25;;;;;;;16.93;42.34;100978.16;5051824;28;20077;-61
2022/04/04 08:26:23;;;;;;;10.80;5.75;;;;;;;16.98;42.73;100981.25;5030804;28;20119;-60
2022/04/04 08:28:50;;;;;;;11.23;5.85;;;;;;;17.04;42.48;100969.13;5051064;28;20073;-60
2022/04/04 08:31:17;;;;;;;10.27;5.03;;;;;;;17.08;41.73;100967.00;5050774;28;20131;-62
2022/04/04 08:33:44;;;;;;;11.07;5.45;;;;;;;17.13;41.56;100975.47;5049890;28;20383;-60
2022/04/04 08:36:10;;;;;;;9.73;5.13;;;;;;;17.17;42.57;100969.66;5051255;28;20135;-59
2022/04/04 08:38:38;;;;;;;8.63;4.95;;;;;;;17.21;41.59;100963.03;5048344;28;20136;-59
2022/04/04 08:41:05;;;;;;;11.52;5.50;;;;;;;17.25;42.28;100968.94;5050875;28;20088;-60
2022/04/04 08:43:38;;;;;;;8.00;4.43;;;;;;;17.30;42.23;100961.31;5048291;28;20183;-59
2022/04/04 08:46:06;;;;;;;9.18;4.80;;;;;;;17.35;41.80;100952.81;5049993;28;20123;-59
2022/04/04 08:48:39;;;;;;;6.90;3.80;;;;;;;17.39;42.25;100946.19;5046527;28;20099;-60
2022/04/04 08:51:07;;;;;;;8.90;4.85;;;;;;;17.42;42.15;100952.09;5047588;28;20344;-60
2022/04/04 08:53:35;;;;;;;11.07;5.50;;;;;;;17.45;42.11;100945.63;5045780;28;20396;-60
2022/04/04 08:56:04;;;;;;;13.55;6.78;;;;;;;17.49;42.00;100941.66;5046837;28;20067;-60
2022/04/04 08:58:31;;;;;;;14.43;7.78;;;;;;;17.52;42.07;100933.28;5049727;28;20172;-60
2022/04/04 09:00:58;;;;;;;18.83;8.50;;;;;;;17.56;41.90;100926.63;5050974;28;20049;-60
2022/04/04 09:03:29;;;;;;;19.20;9.98;;;;;;;17.58;41.99;100913.94;5049842;28;20045;-59
2022/04/04 09:05:58;;;;;;;20.33;10.00;;;;;;;17.62;41.98;100903.78;5046423;28;20056;-59
2022/04/04 09:08:26;;;;;;;18.08;9.02;;;;;;;17.64;42.05;100918.69;5023918;28;20068;-60
2022/04/04 09:10:56;;;;;;;16.95;9.32;;;;;;;17.68;41.62;100920.09;5049046;28;20049;-60
2022/04/04 09:13:27;;;;;;;23.05;10.18;;;;;;;17.71;42.08;100914.44;5051739;28;20133;-60
2022/04/04 09:16:02;;;;;;;19.73;9.98;;;;;;;17.74;42.13;100918.66;5051374;28;20080;-60
2022/04/04 09:18:39;;;;;;;18.67;10.55;;;;;;;17.77;41.86;100913.03;5052512;28;20049;-60
2022/04/04 09:21:26;;;;;;;25.67;10.85;;;;;;;17.80;42.11;100912.72;5046449;28;20068;-60
2022/04/04 09:23:55;;;;;;;18.92;9.90;;;;;;;17.84;41.91;100907.91;5050318;28;20421;-61
2022/04/04 09:26:54;;;;;;;20.88;11.10;;;;;;;17.87;41.96;100902.25;5051338;28;20060;-59
2022/04/04 09:29:24;;;;;;;18.45;9.65;;;;;;;17.89;41.84;100890.38;4986488;28;20135;-60
2022/04/04 09:32:05;;;;;;;16.83;9.10;;;;;;;17.92;42.33;100884.69;5031675;28;20073;-60
2022/04/04 09:35:08;;;;;;;18.15;9.23;;;;;;;17.95;41.93;100888.91;5051518;28;20103;-60
2022/04/04 09:37:37;;;;;;;15.90;8.38;;;;;;;17.99;41.87;100895.66;5046145;28;20040;-60
2022/04/04 09:40:14;;;;;;;15.70;8.25;;;;;;;18.01;41.99;100882.97;5049601;28;20049;-60
2022/04/04 09:42:56;;;;;;;15.73;8.15;;;;;;;18.04;42.05;100889.84;5050931;28;20048;-60
2022/04/04 09:45:24;;;;;;;14.15;7.20;;;;;;;18.06;41.59;100893.22;5044246;28;20075;-61
2022/04/04 09:47:51;;;;;;;15.88;8.20;;;;;;;18.08;41.81;100883.16;5046868;28;20400;-60
2022/04/04 09:50:31;;;;;;;15.60;7.68;;;;;;;18.10;41.48;100884.72;5049700;28;20155;-61
2022/04/04 09:53:05;;;;;;;12.48;6.93;;;;;;;18.11;41.77;100885.56;5042693;28;20794;-60
2022/04/04 09:55:34;;;;;;;12.10;6.63;;;;;;;18.11;42.06;100878.34;5041149;28;20495;-61
2022/04/04 09:58:05;;;;;;;15.93;7.40;;;;;;;18.11;42.22;100882.88;5042349;28;20131;-61
2022/04/04 10:00:35;;;;;;;18.00;9.02;;;;;;;18.10;42.00;100870.47;5042933;28;20045;-60
2022/04/04 10:03:04;;;;;;;25.85;13.27;;;;;;;18.09;41.65;100868.75;5039295;28;20049;-60
2022/04/04 10:05:31;;;;;;;27.58;14.15;;;;;;;18.06;42.32;100863.72;5043188;28;20045;-61
2022/04/04 10:08:00;;;;;;;32.28;16.10;;;;;;;18.04;42.06;100869.22;5046240;28;20056;-60
2022/04/04 10:10:29;;;;;;;32.45;16.10;;;;;;;18.00;42.05;100849.91;5044148;28;20163;-60
2022/04/04 10:12:58;;;;;;;32.55;17.02;;;;;;;17.99;42.40;100858.13;5043255;28;20136;-60
2022/04/04 10:15:30;;;;;;;29.92;15.80;;;;;;;17.96;42.14;100840.47;5043473;28;20040;-59
2022/04/04 10:17:58;;;;;;;32.50;16.85;;;;;;;17.92;42.41;100841.78;5047710;28;20673;-61
2022/04/04 10:20:25;;;;;;;32.60;15.95;;;;;;;17.90;42.08;100840.28;5048157;28;20139;-61
2022/04/04 10:22:54;;;;;;;32.55;16.40;;;;;;;17.87;42.41;100835.22;5049648;28;20128;-61
2022/04/04 10:25:26;;;;;;;29.17;15.93;;;;;;;17.83;42.22;100842.72;5050270;28;20127;-61
2022/04/04 10:27:54;;;;;;;29.45;15.88;;;;;;;17.82;42.21;100821.44;5042923;28;20135;-61
2022/04/04 10:30:34;;;;;;;29.13;14.90;;;;;;;17.78;42.07;100828.94;5023410;28;20096;-60
2022/04/04 10:33:01;;;;;;;29.70;14.77;;;;;;;17.76;42.40;100825.53;5027917;28;20057;-60
2022/04/04 10:35:30;;;;;;;27.75;14.25;;;;;;;17.73;42.59;100828.50;5046249;28;20065;-59
2022/04/04 10:38:03;;;;;;;26.05;13.98;;;;;;;17.68;42.17;100809.34;5045401;28;20077;-59
2022/04/04 10:40:32;;;;;;;27.88;14.68;;;;;;;17.63;42.24;100817.84;5045200;28;20084;-60
2022/04/04 10:43:09;;;;;;;23.05;11.90;;;;;;;17.60;42.32;100818.13;5040547;28;20439;-59
2022/04/04 10:45:54;;;;;;;23.33;11.75;;;;;;;17.60;42.36;100819.97;5026403;28;20123;-60
2022/04/04 10:48:30;;;;;;;22.40;11.65;;;;;;;17.61;43.11;100806.44;5028280;28;20157;-60
2022/04/04 10:51:09;;;;;;;23.98;11.88;;;;;;;17.63;42.48;100804.44;5043968;28;20055;-60
2022/04/04 10:53:42;;;;;;;19.67;11.00;;;;;;;17.65;43.03;100794.44;5026542;28;20045;-60
2022/04/04 10:56:11;;;;;;;20.92;10.85;;;;;;;17.68;42.95;100794.09;5032107;28;20052;-59
2022/04/04 10:58:37;;;;;;;20.23;10.45;;;;;;;17.71;42.85;100796.47;5047231;28;20192;-60
2022/04/04 11:01:16;;;;;;;17.00;9.20;;;;;;;17.74;42.71;100793.53;5048376;28;20156;-60
2022/04/04 11:03:52;;;;;;;16.83;9.23;;;;;;;17.79;42.72;100778.81;5047776;28;20059;-60
2022/04/04 11:09:26;;;;;;;15.90;8.32;;;;;;;17.86;42.84;100783.44;5046440;28;20072;-61
2022/04/04 11:12:12;;;;;;;14.75;8.25;;;;;;;17.90;42.83;100773.25;5044417;28;20095;-60
2022/04/04 11:14:41;;;;;;;15.50;7.25;;;;;;;17.92;43.25;100772.06;5042435;28;20041;-59
2022/04/04 11:17:08;;;;;;;20.27;10.75;;;;;;;17.97;42.87;100768.94;5047418;28;20108;-60
2022/04/04 11:19:49;;;;;;;30.17;15.45;;;;;;;18.00;42.57;100765.94;5037797;28;20041;-59
2022/04/04 11:22:24;;;;;;;31.83;15.95;;;;;;;18.03;42.81;100762.94;5044820;28;20049;-61
2022/04/04 11:24:58;;;;;;;35.05;18.77;;;;;;;18.05;42.67;100750.25;5046118;28;20081;-60
2022/04/04 11:27:27;;;;;;;37.60;20.73;;;;;;;18.07;42.54;100753.59;5047050;28;20128;-59
2022/04/04 11:29:54;;;;;;;37.38;19.85;;;;;;;18.09;42.80;100746.25;5044496;28;20214;-61
2022/04/04 11:32:28;;;;;;;39.35;21.13;;;;;;;18.10;42.77;100749.75;5044377;28;20224;-60
2022/04/04 11:34:57;;;;;;;;;;;;;;;18.08;42.61;100763.31;5048506;28;20107;-60